createdAt,value
2022-11-05T00:01:28.090Z,2.55
2022-11-05T00:06:49.245Z,2.70
2022-11-05T00:12:11.490Z,3.15
2022-11-05T00:17:15.121Z,3.33
2022-11-05T00:22:36.123Z,2.65
2022-11-05T00:27:41.218Z,2.10
2022-11-05T00:32:45.328Z,2.15
2022-11-05T00:37:50.486Z,2.15
2022-11-05T00:43:13.259Z,1.80
2022-11-05T00:48:34.651Z,1.75
2022-11-05T00:53:38.344Z,1.70
2022-11-05T00:58:43.471Z,1.60
2022-11-05T01:03:51.506Z,1.40
2022-11-05T01:08:57.395Z,1.60
2022-11-05T01:14:04.045Z,1.33
2022-11-05T01:19:09.561Z,1.60
2022-11-05T01:24:13.238Z,1.30
2022-11-05T01:29:18.321Z,1.35
2022-11-05T01:34:22.054Z,1.33
2022-11-05T01:39:25.882Z,1.48
2022-11-05T01:45:05.731Z,1.40
2022-11-05T01:50:23.616Z,1.60
2022-11-05T01:55:32.553Z,1.60
2022-11-05T02:00:38.582Z,1.40
2022-11-05T02:05:42.797Z,1.30
2022-11-05T02:10:47.244Z,1.52
2022-11-05T02:16:03.371Z,2.00
2022-11-05T02:21:43.944Z,1.60
2022-11-05T02:27:11.075Z,1.60
2022-11-05T02:32:24.939Z,2.00
2022-11-05T02:37:40.359Z,2.08
2022-11-05T02:42:53.297Z,1.65
2022-11-05T02:48:08.022Z,2.80
2022-11-05T02:53:16.056Z,3.00
2022-11-05T02:58:19.773Z,2.30
2022-11-05T03:03:28.533Z,3.20
2022-11-05T03:08:41.655Z,2.75
2022-11-05T03:13:53.934Z,3.03
2022-11-05T03:19:07.354Z,2.65
2022-11-05T03:24:16.194Z,3.08
2022-11-05T03:29:24.134Z,3.13
2022-11-05T03:34:33.165Z,2.90
2022-11-05T03:39:41.828Z,3.28
2022-11-05T03:44:48.860Z,3.17
2022-11-05T03:49:57.182Z,2.75
2022-11-05T03:55:01.140Z,3.33
2022-11-05T04:00:08.368Z,3.30
2022-11-05T04:05:16.623Z,3.10
2022-11-05T04:10:37.827Z,3.20
2022-11-05T04:15:55.307Z,3.70
2022-11-05T04:21:18.450Z,3.60
2022-11-05T04:26:23.510Z,3.60
2022-11-05T04:31:27.310Z,3.85
2022-11-05T04:36:32.588Z,3.67
2022-11-05T04:41:36.253Z,3.72
2022-11-05T04:46:39.933Z,4.07
2022-11-05T04:51:45.176Z,4.00
2022-11-05T04:56:48.847Z,3.55
2022-11-05T05:01:53.305Z,3.80
2022-11-05T05:06:58.431Z,4.15
2022-11-05T05:12:02.653Z,4.45
2022-11-05T05:17:06.554Z,4.50
2022-11-05T05:22:12.122Z,4.32
2022-11-05T05:27:15.758Z,4.40
2022-11-05T05:32:19.416Z,4.03
2022-11-05T05:37:24.547Z,4.15
2022-11-05T05:42:28.240Z,3.70
2022-11-05T05:47:31.836Z,3.75
2022-11-05T05:52:36.924Z,4.45
2022-11-05T05:57:40.755Z,4.03
2022-11-05T06:02:44.534Z,4.40
2022-11-05T06:07:56.487Z,4.10
2022-11-05T06:13:00.505Z,3.95
2022-11-05T06:18:04.228Z,3.75
2022-11-05T06:23:09.840Z,4.00
2022-11-05T06:28:13.663Z,4.55
2022-11-05T06:33:17.336Z,4.07
2022-11-05T06:38:22.604Z,3.90
2022-11-05T06:43:26.313Z,4.07
2022-11-05T06:48:30.359Z,3.90
2022-11-05T06:53:35.818Z,3.60
2022-11-05T06:58:39.460Z,3.42
2022-11-05T07:03:44.705Z,4.18
2022-11-05T07:08:49.773Z,3.85
2022-11-05T07:13:53.387Z,4.18
2022-11-05T07:18:57.131Z,3.95
2022-11-05T07:24:02.340Z,3.20
2022-11-05T07:29:05.994Z,3.90
2022-11-05T07:34:09.641Z,3.58
2022-11-05T07:39:14.585Z,3.88
2022-11-05T07:44:18.224Z,4.72
2022-11-05T07:49:23.737Z,4.85
2022-11-05T07:54:28.869Z,4.32
2022-11-05T07:59:32.507Z,4.32
2022-11-05T08:04:36.184Z,3.80
2022-11-05T08:09:41.387Z,4.38
2022-11-05T08:14:48.098Z,4.70
2022-11-05T08:19:51.872Z,5.03
2022-11-05T08:24:56.876Z,4.70
2022-11-05T08:30:00.533Z,4.30
2022-11-05T08:35:04.302Z,5.10
2022-11-05T08:40:10.862Z,4.68
2022-11-05T08:45:14.692Z,5.20
2022-11-05T08:50:18.630Z,6.18
2022-11-05T08:55:23.936Z,6.32
2022-11-05T09:00:29.570Z,5.63
2022-11-05T09:05:37.787Z,4.88
2022-11-05T09:10:44.151Z,4.40
2022-11-05T09:15:48.367Z,4.87
2022-11-05T09:20:52.174Z,4.40
2022-11-05T09:25:57.222Z,4.35
2022-11-05T09:31:01.385Z,4.43
2022-11-05T09:36:06.245Z,4.25
2022-11-05T09:41:28.137Z,4.43
2022-11-05T09:46:40.695Z,4.38
2022-11-05T09:51:44.676Z,3.85
2022-11-05T09:56:49.728Z,3.42
2022-11-05T10:01:57.280Z,3.95
2022-11-05T10:07:03.514Z,3.97
2022-11-05T10:12:13.927Z,3.30
2022-11-05T10:17:24.290Z,3.45
2022-11-05T10:22:28.125Z,3.88
2022-11-05T10:27:39.501Z,3.80
2022-11-05T10:32:45.029Z,3.30
2022-11-05T10:37:49.649Z,3.90
2022-11-05T10:43:03.115Z,4.10
2022-11-05T10:48:26.369Z,4.30
2022-11-05T10:53:33.638Z,3.75
2022-11-05T10:58:42.154Z,4.07
2022-11-05T11:03:47.803Z,3.90
2022-11-05T11:08:52.951Z,4.38
2022-11-05T11:14:06.863Z,3.65
2022-11-05T11:19:26.757Z,4.63
2022-11-05T11:24:33.544Z,3.83
2022-11-05T11:29:45.145Z,3.90
2022-11-05T11:34:55.038Z,4.18
2022-11-05T11:40:03.708Z,4.43
2022-11-05T11:45:28.983Z,4.50
2022-11-05T11:50:41.584Z,3.85
2022-11-05T11:56:02.122Z,4.10
2022-11-05T12:01:40.487Z,3.55
2022-11-05T12:06:51.400Z,3.28
2022-11-05T12:12:03.921Z,2.72
2022-11-05T12:17:19.187Z,2.80
2022-11-05T12:22:32.250Z,2.53
2022-11-05T12:27:48.258Z,3.30
2022-11-05T12:33:27.414Z,2.70
2022-11-05T12:38:55.502Z,2.80
2022-11-05T12:44:16.906Z,2.67
2022-11-05T12:49:35.223Z,2.95
2022-11-05T12:54:58.472Z,2.90
2022-11-05T13:00:08.319Z,2.80
2022-11-05T13:05:19.083Z,2.13
2022-11-05T13:10:32.111Z,2.83
2022-11-05T13:15:40.889Z,2.20
2022-11-05T13:20:50.560Z,2.05
2022-11-05T13:25:58.918Z,2.08
2022-11-05T13:31:06.989Z,1.52
2022-11-05T13:36:34.230Z,2.03
2022-11-05T13:41:52.690Z,1.95
2022-11-05T13:47:22.641Z,1.95
2022-11-05T13:52:54.299Z,1.88
2022-11-05T13:58:24.917Z,1.88
2022-11-05T14:03:29.122Z,1.83
2022-11-05T14:08:40.776Z,1.58
2022-11-05T14:13:46.274Z,1.65
2022-11-05T14:18:55.835Z,1.77
2022-11-05T14:24:19.243Z,1.95
2022-11-05T14:29:25.559Z,1.70
2022-11-05T14:34:49.128Z,1.83
2022-11-05T14:39:55.692Z,2.13
2022-11-05T14:45:21.309Z,1.55
2022-11-05T14:50:32.097Z,1.80
2022-11-05T14:55:40.227Z,1.88
2022-11-05T15:00:49.597Z,1.40
2022-11-05T15:06:03.951Z,1.65
2022-11-05T15:11:17.312Z,1.35
2022-11-05T15:16:25.443Z,2.30
2022-11-05T15:21:32.899Z,1.90
2022-11-05T15:26:47.383Z,1.90
2022-11-05T15:31:52.197Z,2.05
2022-11-05T15:36:59.625Z,1.90
2022-11-05T15:42:08.444Z,1.60
2022-11-05T15:47:19.774Z,2.25
2022-11-05T15:52:24.860Z,1.70
2022-11-05T15:57:31.052Z,1.50
2022-11-05T16:02:36.975Z,2.10
2022-11-05T16:07:43.203Z,1.67
2022-11-05T16:12:48.218Z,1.92
2022-11-05T16:17:54.979Z,1.98
2022-11-05T16:23:00.281Z,1.70
2022-11-05T16:28:07.506Z,1.95
2022-11-05T16:33:15.237Z,1.80
2022-11-05T16:38:20.393Z,2.25
2022-11-05T16:43:26.668Z,1.45
2022-11-05T16:48:30.548Z,1.77
2022-11-05T16:53:34.174Z,1.98
2022-11-05T16:58:39.285Z,2.08
2022-11-05T17:03:43.031Z,2.40
2022-11-05T17:08:47.020Z,2.28
2022-11-05T17:13:52.408Z,2.15
2022-11-05T17:18:56.079Z,2.45
2022-11-05T17:23:59.782Z,2.20
2022-11-05T17:29:04.810Z,2.58
2022-11-05T17:34:08.492Z,3.13
2022-11-05T17:39:12.835Z,2.33
2022-11-05T17:44:17.909Z,2.53
2022-11-05T17:49:21.508Z,2.72
2022-11-05T17:54:25.320Z,2.60
2022-11-05T17:59:30.557Z,2.60
2022-11-05T18:04:34.302Z,2.10
2022-11-05T18:09:37.920Z,2.72
2022-11-05T18:14:42.929Z,2.50
2022-11-05T18:19:46.684Z,2.75
2022-11-05T18:24:50.350Z,3.20
2022-11-05T18:29:55.913Z,2.55
2022-11-05T18:34:59.589Z,2.40
2022-11-05T18:40:03.254Z,2.47
2022-11-05T18:45:10.297Z,2.45
2022-11-05T18:50:15.612Z,2.70
2022-11-05T18:55:20.338Z,2.92
2022-11-05T19:00:29.734Z,2.30
2022-11-05T19:05:33.497Z,3.03
2022-11-05T19:10:40.298Z,2.63
2022-11-05T19:15:45.344Z,3.28
2022-11-05T19:20:49.102Z,2.97
2022-11-05T19:25:52.845Z,2.83
2022-11-05T19:30:57.824Z,2.72
2022-11-05T19:36:05.193Z,2.78
2022-11-05T19:41:11.091Z,2.75
2022-11-05T19:46:18.802Z,2.78
2022-11-05T19:51:24.586Z,2.90
2022-11-05T19:56:30.218Z,3.50
2022-11-05T20:01:36.339Z,3.35
2022-11-05T20:06:40.815Z,3.33
2022-11-05T20:11:45.382Z,3.00
2022-11-05T20:16:50.768Z,2.65
2022-11-05T20:21:54.450Z,2.70
2022-11-05T20:26:58.358Z,2.55
2022-11-05T20:32:05.052Z,3.00
2022-11-05T20:37:08.820Z,3.00
2022-11-05T20:42:12.580Z,3.17
2022-11-05T20:47:17.649Z,2.83
2022-11-05T20:52:21.276Z,2.67
2022-11-05T20:57:25.008Z,3.38
2022-11-05T21:02:30.156Z,3.00
2022-11-05T21:07:33.894Z,3.38
2022-11-05T21:12:40.243Z,3.55
2022-11-05T21:17:45.689Z,3.33
2022-11-05T21:22:49.579Z,3.42
2022-11-05T21:27:53.259Z,3.33
2022-11-05T21:32:58.479Z,3.22
2022-11-05T21:38:02.189Z,3.38
2022-11-05T21:43:06.276Z,3.20
2022-11-05T21:48:12.303Z,3.00
2022-11-05T21:53:34.287Z,2.63
2022-11-05T21:58:55.078Z,2.53
2022-11-05T22:04:03.117Z,3.13
2022-11-05T22:09:07.524Z,2.60
2022-11-05T22:14:11.397Z,2.90
2022-11-05T22:19:16.577Z,2.85
2022-11-05T22:24:20.777Z,2.80
2022-11-05T22:29:24.490Z,2.55
2022-11-05T22:34:29.620Z,3.35
2022-11-05T22:39:33.425Z,3.05
2022-11-05T22:44:37.684Z,3.08
2022-11-05T22:49:42.758Z,2.72
2022-11-05T22:54:47.741Z,2.67
2022-11-05T22:59:51.455Z,3.50
2022-11-05T23:04:56.483Z,2.80
2022-11-05T23:10:17.409Z,2.55
2022-11-05T23:15:35.053Z,2.80
2022-11-05T23:20:57.645Z,3.30
2022-11-05T23:26:22.133Z,2.35
2022-11-05T23:31:43.063Z,2.90
2022-11-05T23:37:05.208Z,2.80
2022-11-05T23:42:26.371Z,2.78
2022-11-05T23:47:47.705Z,3.28
2022-11-05T23:52:53.353Z,2.78
2022-11-05T23:57:56.963Z,2.60
